createdAt,value
2019-06-26T00:01:50.088Z,56.07
2019-06-26T00:04:24.768Z,56.44
2019-06-26T00:06:59.411Z,56.44
2019-06-26T00:09:34.074Z,57.65
2019-06-26T00:12:10.386Z,56.19
2019-06-26T00:14:45.097Z,54.84
2019-06-26T00:17:19.784Z,54.66
2019-06-26T00:19:54.425Z,54.64
2019-06-26T00:22:29.065Z,54.64
2019-06-26T00:25:07.002Z,56.69
2019-06-26T00:27:41.645Z,55.81
2019-06-26T00:30:16.290Z,55.81
2019-06-26T00:32:51.001Z,55.24
2019-06-26T00:35:25.673Z,55.24
2019-06-26T00:38:00.431Z,55.19
2019-06-26T00:40:35.209Z,55.60
2019-06-26T00:43:10.018Z,56.23
2019-06-26T00:45:44.736Z,57.43
2019-06-26T00:48:19.373Z,57.43
2019-06-26T00:50:54.042Z,56.94
2019-06-26T00:53:28.803Z,57.93
2019-06-26T00:56:03.593Z,58.05
2019-06-26T00:58:38.243Z,57.89
2019-06-26T01:01:12.960Z,57.89
2019-06-26T01:03:49.408Z,58.93
2019-06-26T01:06:44.066Z,58.39
2019-06-26T01:09:21.848Z,59.19
2019-06-26T01:11:56.643Z,60.44
2019-06-26T01:14:34.042Z,60.85
2019-06-26T01:17:08.672Z,60.91
2019-06-26T01:19:44.588Z,61.14
2019-06-26T01:22:20.441Z,61.47
2019-06-26T01:24:55.372Z,61.74
2019-06-26T01:27:31.891Z,61.74
2019-06-26T01:30:07.510Z,61.08
2019-06-26T01:32:42.426Z,62.14
2019-06-26T01:35:17.084Z,61.27
2019-06-26T01:37:51.937Z,60.38
2019-06-26T01:40:26.548Z,60.38
2019-06-26T01:43:01.194Z,61.19
2019-06-26T01:45:35.850Z,59.60
2019-06-26T01:48:10.493Z,59.79
2019-06-26T01:50:45.208Z,60.76
2019-06-26T01:53:19.854Z,60.76
2019-06-26T01:55:54.491Z,60.33
2019-06-26T01:58:29.210Z,60.54
2019-06-26T02:01:04.223Z,60.50
2019-06-26T02:03:38.877Z,60.57
2019-06-26T02:06:14.504Z,60.57
2019-06-26T02:08:50.027Z,59.41
2019-06-26T02:11:24.660Z,59.66
2019-06-26T02:13:59.298Z,58.18
2019-06-26T02:16:33.945Z,58.18
2019-06-26T02:19:10.313Z,58.36
2019-06-26T02:21:44.982Z,59.79
2019-06-26T02:24:19.659Z,60.39
2019-06-26T02:26:54.352Z,60.39
2019-06-26T02:29:29.030Z,60.94
2019-06-26T02:32:03.660Z,61.07
2019-06-26T02:34:38.372Z,61.07
2019-06-26T02:37:13.006Z,60.57
2019-06-26T02:39:47.657Z,60.47
2019-06-26T02:42:22.501Z,60.72
2019-06-26T02:44:57.132Z,61.83
2019-06-26T02:47:31.762Z,61.17
2019-06-26T02:50:07.530Z,61.17
2019-06-26T02:52:42.179Z,62.15
2019-06-26T02:55:16.818Z,62.15
2019-06-26T02:57:51.452Z,62.72
2019-06-26T03:00:26.118Z,63.38
2019-06-26T03:03:00.745Z,62.90
2019-06-26T03:05:35.479Z,64.28
2019-06-26T03:08:10.147Z,64.67
2019-06-26T03:10:44.853Z,64.67
2019-06-26T03:13:19.500Z,64.76
2019-06-26T03:15:54.150Z,63.58
2019-06-26T03:18:28.871Z,63.24
2019-06-26T03:21:03.514Z,63.24
2019-06-26T03:23:38.181Z,63.59
2019-06-26T03:26:12.859Z,63.93
2019-06-26T03:28:47.500Z,62.82
2019-06-26T03:31:22.167Z,63.43
2019-06-26T03:33:56.798Z,62.85
2019-06-26T03:36:31.478Z,62.22
2019-06-26T03:39:08.368Z,62.22
2019-06-26T03:41:43.258Z,61.60
2019-06-26T03:44:17.942Z,62.90
2019-06-26T03:46:52.643Z,62.60
2019-06-26T03:49:27.310Z,62.31
2019-06-26T03:52:01.964Z,62.02
2019-06-26T03:54:36.618Z,62.02
2019-06-26T03:57:11.256Z,60.88
2019-06-26T03:59:45.906Z,61.83
2019-06-26T04:02:20.566Z,61.83
2019-06-26T04:04:55.232Z,62.95
2019-06-26T04:07:29.892Z,64.37
2019-06-26T04:10:06.493Z,64.37
2019-06-26T04:12:41.137Z,66.15
2019-06-26T04:15:15.804Z,65.74
2019-06-26T04:17:50.441Z,65.32
2019-06-26T04:20:25.455Z,65.82
2019-06-26T04:23:00.088Z,65.82
2019-06-26T04:25:37.831Z,66.02
2019-06-26T04:28:11.158Z,67.03
2019-06-26T04:30:45.821Z,67.03
2019-06-26T04:33:20.461Z,67.03
2019-06-26T04:35:55.114Z,67.46
2019-06-26T04:38:29.748Z,66.67
2019-06-26T04:41:05.066Z,66.21
2019-06-26T04:43:39.720Z,66.00
2019-06-26T04:46:14.414Z,65.71
2019-06-26T04:48:49.110Z,65.71
2019-06-26T04:51:23.779Z,66.81
2019-06-26T04:53:58.485Z,67.44
2019-06-26T04:56:33.125Z,67.23
2019-06-26T04:59:07.804Z,65.96
2019-06-26T05:01:42.512Z,66.99
2019-06-26T05:04:17.119Z,67.60
2019-06-26T05:06:51.768Z,67.93
2019-06-26T05:09:26.494Z,66.23
2019-06-26T05:12:01.154Z,66.97
2019-06-26T05:14:35.775Z,67.33
2019-06-26T05:17:10.474Z,67.84
2019-06-26T05:19:45.266Z,67.84
2019-06-26T05:22:21.034Z,66.29
2019-06-26T05:24:55.711Z,65.52
2019-06-26T05:27:30.350Z,68.42
2019-06-26T05:30:09.846Z,67.48
2019-06-26T05:32:44.527Z,67.48
2019-06-26T05:35:19.502Z,67.96
2019-06-26T05:37:54.150Z,68.28
2019-06-26T05:40:28.805Z,68.28
2019-06-26T05:43:03.507Z,68.33
2019-06-26T05:45:38.179Z,68.82
2019-06-26T05:48:12.827Z,67.41
2019-06-26T05:50:47.469Z,67.41
2019-06-26T05:53:22.097Z,68.89
2019-06-26T05:55:56.740Z,69.93
2019-06-26T05:58:31.939Z,68.53
2019-06-26T06:01:06.651Z,69.14
2019-06-26T06:03:41.287Z,69.14
2019-06-26T06:06:15.917Z,69.01
2019-06-26T06:08:50.575Z,69.01
2019-06-26T06:11:25.229Z,69.37
2019-06-26T06:13:59.882Z,69.54
2019-06-26T06:16:46.733Z,69.73
2019-06-26T06:19:11.059Z,69.73
2019-06-26T06:21:45.757Z,68.91
2019-06-26T06:24:20.412Z,68.91
2019-06-26T06:26:55.126Z,69.39
2019-06-26T06:29:30.833Z,68.62
2019-06-26T06:32:05.577Z,68.25
2019-06-26T06:34:40.307Z,68.42
2019-06-26T06:37:14.936Z,69.83
2019-06-26T06:39:49.591Z,69.83
2019-06-26T06:42:24.236Z,69.30
2019-06-26T06:44:58.963Z,69.30
2019-06-26T06:47:33.601Z,66.55
2019-06-26T06:50:08.254Z,66.58
2019-06-26T06:52:42.972Z,66.58
2019-06-26T06:55:17.612Z,66.45
2019-06-26T06:57:52.268Z,67.74
2019-06-26T07:00:26.919Z,67.52
2019-06-26T07:03:03.260Z,67.52
2019-06-26T07:05:37.899Z,67.07
2019-06-26T07:08:12.625Z,66.71
2019-06-26T07:10:47.965Z,66.71
2019-06-26T07:13:22.627Z,65.93
2019-06-26T07:15:57.341Z,66.27
2019-06-26T07:18:31.978Z,66.81
2019-06-26T07:21:06.627Z,65.88
2019-06-26T07:23:41.291Z,65.88
2019-06-26T07:26:15.905Z,66.33
2019-06-26T07:28:50.556Z,67.39
2019-06-26T07:31:25.256Z,65.16
2019-06-26T07:33:59.871Z,65.16
2019-06-26T07:36:34.507Z,65.84
2019-06-26T07:39:09.178Z,65.05
2019-06-26T07:41:43.814Z,65.78
2019-06-26T07:44:18.684Z,65.78
2019-06-26T07:46:53.341Z,64.55
2019-06-26T07:49:28.215Z,64.55
2019-06-26T07:52:03.123Z,63.92
2019-06-26T07:54:37.848Z,62.32
2019-06-26T07:57:12.538Z,61.93
2019-06-26T07:59:47.242Z,61.93
2019-06-26T08:02:22.040Z,62.75
2019-06-26T08:04:56.793Z,62.08
2019-06-26T08:07:31.422Z,62.83
2019-06-26T08:10:08.157Z,62.83
2019-06-26T08:12:42.810Z,62.26
2019-06-26T08:15:17.626Z,61.19
2019-06-26T08:18:00.412Z,61.19
2019-06-26T08:20:28.641Z,61.32
2019-06-26T08:23:03.347Z,61.32
2019-06-26T08:25:37.980Z,61.11
2019-06-26T08:30:45.976Z,61.29
2019-06-26T08:33:20.697Z,61.29
2019-06-26T08:35:55.420Z,61.93
2019-06-26T08:38:30.075Z,61.48
2019-06-26T08:41:04.805Z,60.49
2019-06-26T08:43:39.495Z,60.92
2019-06-26T08:46:14.963Z,61.11
2019-06-26T08:48:52.088Z,60.09
2019-06-26T08:51:25.981Z,60.34
2019-06-26T08:54:04.448Z,59.86
2019-06-26T08:56:36.984Z,58.97
2019-06-26T08:59:11.662Z,59.24
2019-06-26T09:01:46.300Z,59.24
2019-06-26T09:04:20.962Z,58.35
2019-06-26T09:06:55.616Z,58.35
2019-06-26T09:09:30.327Z,58.27
2019-06-26T09:12:04.954Z,58.77
2019-06-26T09:14:39.636Z,58.77
2019-06-26T09:17:14.273Z,57.95
2019-06-26T09:19:49.014Z,57.84
2019-06-26T09:22:23.737Z,58.49
2019-06-26T09:24:58.466Z,57.27
2019-06-26T09:27:33.191Z,56.94
2019-06-26T09:30:08.187Z,57.63
2019-06-26T09:32:42.933Z,57.08
2019-06-26T09:35:17.583Z,57.42
2019-06-26T09:37:52.254Z,57.42
2019-06-26T09:40:26.928Z,56.36
2019-06-26T09:43:01.588Z,57.70
2019-06-26T09:45:36.336Z,55.85
2019-06-26T09:48:11.014Z,56.23
2019-06-26T09:50:45.755Z,56.02
2019-06-26T09:53:20.523Z,56.23
2019-06-26T09:55:55.323Z,56.23
2019-06-26T09:58:29.982Z,55.87
2019-06-26T10:01:04.691Z,56.71
2019-06-26T10:03:39.319Z,54.98
2019-06-26T10:06:14.292Z,54.98
2019-06-26T10:08:48.949Z,55.64
2019-06-26T10:11:23.609Z,55.04
2019-06-26T10:16:41.594Z,55.15
2019-06-26T10:19:16.281Z,54.62
2019-06-26T10:21:50.922Z,53.75
2019-06-26T10:24:25.572Z,53.99
2019-06-26T10:27:00.226Z,53.99
2019-06-26T10:29:34.886Z,54.27
2019-06-26T10:32:09.511Z,54.27
2019-06-26T10:34:44.178Z,53.79
2019-06-26T10:37:18.907Z,53.79
2019-06-26T10:39:53.537Z,54.23
2019-06-26T10:42:28.964Z,54.23
2019-06-26T10:45:09.262Z,53.76
2019-06-26T10:47:43.905Z,53.86
2019-06-26T10:50:18.732Z,53.00
2019-06-26T10:52:53.373Z,51.59
2019-06-26T10:55:28.028Z,52.11
2019-06-26T10:58:04.347Z,52.11
2019-06-26T11:00:39.050Z,52.67
2019-06-26T11:03:15.130Z,51.58
2019-06-26T11:05:55.584Z,51.82
2019-06-26T11:08:30.289Z,51.82
2019-06-26T11:11:05.170Z,51.82
2019-06-26T11:13:39.823Z,51.29
2019-06-26T11:16:14.626Z,50.19
2019-06-26T11:18:50.984Z,51.18
2019-06-26T11:21:25.641Z,51.29
2019-06-26T11:24:00.280Z,50.42
2019-06-26T11:26:35.461Z,51.04
2019-06-26T11:29:10.132Z,50.82
2019-06-26T11:31:44.764Z,51.28
2019-06-26T11:34:19.440Z,51.23
2019-06-26T11:37:03.755Z,52.43
2019-06-26T11:39:30.488Z,51.71
2019-06-26T11:42:05.288Z,51.73
2019-06-26T11:44:39.946Z,51.31
2019-06-26T11:47:14.779Z,51.31
2019-06-26T11:49:59.478Z,50.25
2019-06-26T11:52:25.842Z,51.22
2019-06-26T11:55:02.995Z,50.12
2019-06-26T11:57:36.831Z,50.12
2019-06-26T12:00:19.930Z,51.35
2019-06-26T12:02:54.592Z,51.29
2019-06-26T12:05:29.230Z,51.15
2019-06-26T12:08:04.115Z,51.15
2019-06-26T12:10:40.573Z,51.31
2019-06-26T12:13:15.211Z,51.50
2019-06-26T12:15:49.862Z,51.31
2019-06-26T12:18:24.498Z,51.31
2019-06-26T12:20:59.165Z,50.83
2019-06-26T12:23:33.803Z,52.37
2019-06-26T12:26:08.458Z,50.34
2019-06-26T12:28:43.115Z,49.96
2019-06-26T12:31:17.781Z,49.96
2019-06-26T12:33:52.416Z,50.08
2019-06-26T12:36:27.096Z,48.01
2019-06-26T12:39:01.733Z,48.01
2019-06-26T12:41:36.388Z,48.09
2019-06-26T12:44:11.091Z,46.91
2019-06-26T12:46:45.742Z,44.57
2019-06-26T12:49:20.396Z,44.39
2019-06-26T12:51:55.036Z,46.29
2019-06-26T12:54:29.706Z,46.29
2019-06-26T12:57:04.345Z,47.21
2019-06-26T12:59:55.648Z,44.86
2019-06-26T13:02:15.499Z,44.86
2019-06-26T13:04:50.169Z,44.97
2019-06-26T13:07:24.820Z,45.66
2019-06-26T13:09:59.466Z,48.36
2019-06-26T13:12:34.056Z,48.17
2019-06-26T13:15:09.093Z,49.73
2019-06-26T13:17:43.745Z,51.13
2019-06-26T13:20:18.474Z,51.13
2019-06-26T13:22:53.149Z,51.06
2019-06-26T13:25:27.798Z,51.28
2019-06-26T13:28:02.570Z,50.80
2019-06-26T13:30:40.212Z,50.43
2019-06-26T13:33:14.858Z,50.43
2019-06-26T13:35:49.541Z,50.19
2019-06-26T13:38:27.091Z,52.23
2019-06-26T13:41:00.641Z,50.11
2019-06-26T13:43:35.528Z,49.21
2019-06-26T13:46:10.205Z,47.59
2019-06-26T13:48:44.846Z,48.37
2019-06-26T13:51:21.658Z,46.97
2019-06-26T13:53:55.921Z,47.68
2019-06-26T13:56:30.647Z,47.99
2019-06-26T13:59:07.508Z,50.05
2019-06-26T14:01:41.700Z,50.05
2019-06-26T14:04:16.359Z,50.15
2019-06-26T14:06:51.022Z,48.70
2019-06-26T14:09:25.662Z,49.18
2019-06-26T14:12:00.304Z,48.32
2019-06-26T14:14:52.445Z,48.32
2019-06-26T14:17:11.337Z,48.01
2019-06-26T14:19:45.988Z,47.07
2019-06-26T14:22:20.617Z,48.11
2019-06-26T14:24:55.287Z,48.11
2019-06-26T14:27:29.911Z,48.92
2019-06-26T14:30:06.500Z,49.11
2019-06-26T14:32:41.156Z,48.10
2019-06-26T14:35:15.975Z,48.10
2019-06-26T14:37:50.650Z,48.64
2019-06-26T14:40:25.386Z,45.27
2019-06-26T14:43:00.029Z,46.38
2019-06-26T14:45:34.677Z,43.86
2019-06-26T14:48:09.337Z,45.73
2019-06-26T14:50:43.993Z,43.90
2019-06-26T14:53:18.655Z,43.90
2019-06-26T14:55:53.297Z,43.76
2019-06-26T14:58:28.458Z,42.66
2019-06-26T15:01:07.925Z,42.82
2019-06-26T15:03:42.675Z,42.06
2019-06-26T15:06:17.450Z,41.72
2019-06-26T15:08:52.068Z,41.81
2019-06-26T15:11:26.708Z,41.71
2019-06-26T15:14:01.495Z,42.18
2019-06-26T15:16:36.205Z,41.47
2019-06-26T15:19:10.854Z,39.08
2019-06-26T15:21:57.847Z,40.38
2019-06-26T15:24:21.896Z,40.49
2019-06-26T15:26:59.440Z,40.76
2019-06-26T15:29:34.457Z,39.13
2019-06-26T15:32:09.128Z,38.93
2019-06-26T15:34:43.941Z,38.93
2019-06-26T15:37:20.844Z,38.60
2019-06-26T15:40:02.134Z,39.12
2019-06-26T15:42:37.228Z,41.68
2019-06-26T15:45:12.440Z,40.66
2019-06-26T15:47:47.330Z,39.42
2019-06-26T15:50:24.779Z,39.42
2019-06-26T15:52:59.438Z,41.45
2019-06-26T15:55:34.460Z,40.89
2019-06-26T15:58:09.342Z,40.89
2019-06-26T16:00:45.271Z,42.01
2019-06-26T16:03:20.358Z,41.20
2019-06-26T16:05:55.775Z,41.86
2019-06-26T16:08:30.423Z,41.84
2019-06-26T16:11:05.449Z,41.13
2019-06-26T16:13:40.055Z,40.88
2019-06-26T16:16:15.043Z,41.00
2019-06-26T16:18:51.430Z,41.00
2019-06-26T16:21:26.110Z,42.38
2019-06-26T16:24:00.760Z,42.38
2019-06-26T16:26:35.591Z,42.46
2019-06-26T16:29:10.405Z,42.46
2019-06-26T16:31:45.162Z,44.31
2019-06-26T16:34:20.216Z,44.31
2019-06-26T16:36:55.053Z,42.63
2019-06-26T16:39:29.924Z,42.75
2019-06-26T16:42:04.610Z,42.75
2019-06-26T16:44:40.508Z,43.08
2019-06-26T16:47:15.195Z,44.72
2019-06-26T16:49:50.157Z,46.37
2019-06-26T16:52:24.816Z,46.37
2019-06-26T16:54:59.445Z,47.97
2019-06-26T16:57:34.077Z,47.97
2019-06-26T17:00:10.134Z,47.52
2019-06-26T17:02:45.076Z,47.16
2019-06-26T17:05:19.758Z,47.59
2019-06-26T17:07:54.531Z,46.66
2019-06-26T17:10:29.175Z,47.87
2019-06-26T17:13:03.803Z,46.84
2019-06-26T17:15:38.553Z,46.30
2019-06-26T17:18:14.006Z,46.30
2019-06-26T17:20:48.724Z,47.87
2019-06-26T17:23:23.392Z,47.87
2019-06-26T17:25:58.262Z,48.59
2019-06-26T17:28:32.968Z,48.59
2019-06-26T17:31:07.661Z,48.90
2019-06-26T17:33:42.288Z,49.27
2019-06-26T17:36:17.064Z,49.27
2019-06-26T17:38:51.807Z,49.21
2019-06-26T17:41:26.418Z,49.03
2019-06-26T17:44:01.146Z,51.27
2019-06-26T17:46:35.807Z,51.27
2019-06-26T17:49:10.523Z,52.15
2019-06-26T17:51:45.235Z,52.95
2019-06-26T17:54:20.157Z,52.95
2019-06-26T17:56:54.790Z,51.86
2019-06-26T17:59:29.472Z,51.86
2019-06-26T18:02:04.188Z,52.25
2019-06-26T18:04:38.924Z,52.47
2019-06-26T18:07:14.308Z,53.28
2019-06-26T18:09:48.946Z,52.52
2019-06-26T18:12:23.604Z,53.51
2019-06-26T18:14:58.320Z,52.70
2019-06-26T18:17:33.037Z,52.70
2019-06-26T18:20:08.369Z,53.19
2019-06-26T18:22:43.181Z,53.90
2019-06-26T18:25:17.889Z,53.32
2019-06-26T18:27:52.654Z,53.65
2019-06-26T18:30:27.392Z,55.40
2019-06-26T18:33:02.203Z,55.70
2019-06-26T18:35:36.891Z,55.70
2019-06-26T18:38:11.589Z,56.64
2019-06-26T18:40:46.242Z,56.64
2019-06-26T18:43:20.868Z,55.33
2019-06-26T18:45:55.517Z,55.77
2019-06-26T18:48:30.161Z,55.77
2019-06-26T18:51:04.814Z,57.45
2019-06-26T18:53:52.808Z,58.40
2019-06-26T18:56:16.188Z,58.40
2019-06-26T18:58:50.815Z,57.02
2019-06-26T19:01:25.476Z,57.02
2019-06-26T19:04:00.119Z,58.69
2019-06-26T19:06:34.738Z,58.42
2019-06-26T19:09:09.377Z,58.67
2019-06-26T19:11:44.017Z,58.67
2019-06-26T19:14:18.683Z,59.18
2019-06-26T19:16:53.365Z,59.48
2019-06-26T19:19:28.027Z,59.48
2019-06-26T19:22:02.687Z,59.62
2019-06-26T19:24:37.364Z,59.62
2019-06-26T19:27:12.016Z,59.56
2019-06-26T19:29:46.675Z,59.64
2019-06-26T19:32:21.293Z,59.93
2019-06-26T19:34:55.915Z,62.44
2019-06-26T19:37:30.558Z,59.64
2019-06-26T19:40:08.411Z,59.81
2019-06-26T19:42:42.045Z,60.33
2019-06-26T19:45:16.699Z,60.33
2019-06-26T19:47:51.343Z,60.79
2019-06-26T19:50:25.970Z,60.49
2019-06-26T19:53:00.621Z,59.72
2019-06-26T19:55:35.390Z,58.86
2019-06-26T19:58:10.030Z,58.60
2019-06-26T20:00:44.739Z,59.41
2019-06-26T20:03:19.398Z,58.22
2019-06-26T20:05:54.030Z,57.62
2019-06-26T20:08:28.660Z,57.62
2019-06-26T20:11:03.328Z,58.83
2019-06-26T20:13:37.973Z,57.80
2019-06-26T20:16:12.632Z,58.66
2019-06-26T20:18:47.331Z,58.66
2019-06-26T20:21:21.976Z,57.79
2019-06-26T20:23:56.606Z,58.63
2019-06-26T20:26:31.486Z,58.21
2019-06-26T20:29:06.164Z,57.61
2019-06-26T20:31:40.794Z,58.09
2019-06-26T20:34:15.445Z,59.93
2019-06-26T20:36:50.100Z,58.85
2019-06-26T20:39:24.747Z,58.85
2019-06-26T20:41:59.392Z,58.57
2019-06-26T20:44:34.117Z,58.46
2019-06-26T20:47:08.815Z,58.44
2019-06-26T20:49:53.144Z,58.53
2019-06-26T20:52:19.870Z,58.53
2019-06-26T20:55:01.391Z,59.68
2019-06-26T20:57:30.873Z,59.68
2019-06-26T21:00:09.518Z,58.53
2019-06-26T21:02:44.192Z,59.31
2019-06-26T21:05:18.847Z,59.53
2019-06-26T21:07:53.482Z,58.48
2019-06-26T21:10:28.140Z,57.94
2019-06-26T21:13:02.760Z,57.94
2019-06-26T21:15:37.587Z,58.04
2019-06-26T21:18:12.303Z,57.73
2019-06-26T21:20:47.011Z,57.73
2019-06-26T21:23:23.726Z,58.02
2019-06-26T21:25:58.452Z,58.01
2019-06-26T21:28:33.105Z,58.01
2019-06-26T21:31:07.739Z,57.96
2019-06-26T21:33:44.051Z,57.96
2019-06-26T21:36:18.791Z,57.55
2019-06-26T21:38:53.444Z,57.23
2019-06-26T21:41:28.136Z,56.55
2019-06-26T21:44:02.774Z,56.44
2019-06-26T21:46:38.562Z,56.44
2019-06-26T21:49:14.150Z,56.74
2019-06-26T21:51:48.812Z,56.78
2019-06-26T21:54:23.465Z,57.40
2019-06-26T21:56:58.170Z,57.31
2019-06-26T21:59:32.845Z,57.89
2019-06-26T22:02:09.122Z,57.89
2019-06-26T22:04:43.771Z,59.07
2019-06-26T22:07:18.455Z,60.19
2019-06-26T22:09:53.236Z,60.68
2019-06-26T22:12:27.866Z,59.82
2019-06-26T22:15:02.593Z,59.82
2019-06-26T22:17:38.838Z,59.82
2019-06-26T22:20:14.887Z,58.35
2019-06-26T22:22:49.570Z,58.32
2019-06-26T22:25:24.245Z,59.15
2019-06-26T22:27:58.877Z,60.48
2019-06-26T22:30:33.533Z,60.48
2019-06-26T22:33:08.168Z,62.55
2019-06-26T22:35:43.207Z,62.55
2019-06-26T22:38:17.838Z,62.87
2019-06-26T22:40:52.503Z,62.87
2019-06-26T22:43:27.147Z,63.71
2019-06-26T22:46:01.797Z,64.80
2019-06-26T22:48:36.587Z,64.80
2019-06-26T22:51:11.193Z,63.22
2019-06-26T22:53:46.275Z,62.35
2019-06-26T22:56:20.923Z,62.35
2019-06-26T22:58:55.550Z,63.86
2019-06-26T23:01:30.174Z,62.79
2019-06-26T23:04:04.818Z,62.79
2019-06-26T23:06:39.439Z,62.77
2019-06-26T23:09:14.467Z,63.29
2019-06-26T23:11:49.099Z,65.00
2019-06-26T23:14:23.743Z,65.20
2019-06-26T23:16:58.352Z,65.20
2019-06-26T23:19:32.992Z,65.80
2019-06-26T23:22:07.627Z,65.80
2019-06-26T23:24:42.324Z,65.73
2019-06-26T23:27:16.984Z,65.31
2019-06-26T23:29:51.665Z,65.31
2019-06-26T23:32:26.343Z,64.34
2019-06-26T23:35:01.034Z,64.34
2019-06-26T23:37:35.668Z,63.67
2019-06-26T23:40:10.441Z,63.67
2019-06-26T23:42:45.030Z,64.44
2019-06-26T23:45:19.665Z,64.44
2019-06-26T23:47:54.293Z,65.43
2019-06-26T23:50:28.946Z,65.43
2019-06-26T23:53:03.568Z,65.09
2019-06-26T23:55:38.235Z,66.30
2019-06-26T23:58:13.023Z,66.89
